Portada
METAR-TAF:

METAR-TAF

Aeropuertos :

Isla de Margarita, Venezuela

Aeropuerto Internacional del Caribe Santiago Mariño

latitud: 10-55N, longitud: 063-59W, altitud: 23 m

METAR: falta

Hora: 11:19 (15:19 UTC)

Pronóstico

El informe se hizo hace 5 horas y 19 minutos, a las 10:00 UTC
Pronóstico válido del 11 a las 12 UTC al 12 a las 12 UTC
Viento 5 kt del este
Visibilidad 10 km o más
Escasas nubes a una altura de 1000 ft
Evolucionando progresivamente
del 11 a las 14 UTC al 11 a las 18 UTC
Viento 10 kt del este
Visibilidad 10 km o más
Nubes dispersas a una altura de 1000 ft

TAF: SVMG 111000Z 1112/1212 09005KT 9999 FEW010 TX33/19Z TN24/09Z BECMG 1114/1118 08010KT 9999 SCT010

Observaciones y pronósticos meteorológicos de más de 4000 aeropuertos (mensajes METAR y TAF).

Los puntos amarillos y rojos representan las estaciones disponibles.

Ponga el ratón en el punto deseado para ver el nombre de la estación.

Haga clic para ver las observaciones y los pronósticos meteorológicos.

Para cambiar el mapa : haga clic en los botones verdes con una cruz de color negro para hacer un zoom, en el botón verde con un guión para alejar o en las flechas verdes para mapas adyacentes.


METAR-TAF: